Jan — V2HS9 — position and weather

sailwx.info

Track history (hours):
 
Tides and Currents Weather Stations Pressure Air Temp Water Temp Dewpoint Dewpoint Depression Visibility Wind Speed Wind Dir Waves Ship Positions

Jan

Last reported at 2017-Sep-05 05:43 UTC. Time now 2017-Sep-23 00:22 UTC.
Position N 09°00' W 079°36'.
Warning: this ship's position is 17 days out of date.

Length 145 m; draft 5.6 m.

Type: Cargo ship. MMSI: 235622000.

Date/timePositionNaut miles runAvg speedWind from/ knotsBaromVisibWave heightAir tempDewpointWater temp
2017-Sep-05 05:43N 09°00' W 079°36'0 1.3
2017-Sep-05 05:23N 09°00' W 079°36'1 1.6
2017-Sep-05 04:46N 09°01' W 079°37'0 1.1
2017-Sep-05 04:30N 09°01' W 079°37'3 2.9
2017-Sep-05 03:37N 09°03' W 079°39'3 6.7
2017-Sep-05 03:11N 09°05' W 079°41'2 7.3
2017-Sep-05 02:56N 09°07' W 079°42'4 8.1
2017-Sep-05 02:26N 09°07' W 079°46'510.1
2017-Sep-05 01:56N 09°10' W 079°50'511.5
2017-Sep-05 01:29N 09°12' W 079°55'4 8.3
2017-Sep-05 01:00N 09°16' W 079°55'0 0.8
2017-Sep-05 00:30N 09°16' W 079°55'0 0.8
2017-Sep-05 00:00N 09°17' W 079°55'0 0.5
2017-Sep-04 23:30N 09°17' W 079°55'1 2.5
2017-Sep-04 23:00N 09°18' W 079°55'2 4.4
2017-Sep-04 22:30N 09°20' W 079°55'2 3.7
2017-Sep-04 21:59N 09°22' W 079°55'0 0.1
2017-Sep-04 21:29N 09°22' W 079°55'0 0.0
2017-Sep-04 20:59N 09°22' W 079°55'0 0.0
2017-Sep-04 20:29N 09°22' W 079°55'0 0.0
2017-Sep-04 19:56N 09°22' W 079°55'0 0.0
2017-Sep-04 19:29N 09°22' W 079°55'0 0.0
2017-Sep-04 18:56N 09°22' W 079°55'0 0.0
2017-Sep-04 18:29N 09°22' W 079°55'0 0.0
2017-Sep-04 17:59N 09°22' W 079°55'0 0.0
2017-Sep-04 17:29N 09°22' W 079°55'0 0.1
2017-Sep-04 17:01N 09°22' W 079°55'0 0.0
2017-Sep-04 16:30N 09°22' W 079°55'0 0.1
2017-Sep-04 16:01N 09°22' W 079°55'0 0.0
2017-Sep-04 15:28N 09°22' W 079°55'0 0.2
2017-Sep-04 15:01N 09°22' W 079°55'0 0.1
2017-Sep-04 14:29N 09°22' W 079°55'0 0.1
2017-Sep-04 13:59N 09°22' W 079°55'0 0.1
2017-Sep-04 13:29N 09°22' W 079°55'0 0.1
2017-Sep-04 12:59N 09°22' W 079°55'0 0.1
2017-Sep-04 12:29N 09°22' W 079°55'0 0.1
2017-Sep-04 11:59N 09°22' W 079°55'0 0.0
2017-Sep-04 11:29N 09°22' W 079°55'0 0.0
2017-Sep-04 10:59N 09°22' W 079°55'0 0.1
2017-Sep-04 10:29N 09°22' W 079°55'0 0.1
2017-Sep-04 09:59N 09°22' W 079°55'0 0.3
2017-Sep-04 09:29N 09°22' W 079°55'0 0.1
2017-Sep-04 08:59N 09°22' W 079°55'0 0.0
2017-Sep-04 08:29N 09°22' W 079°55'0 0.0
2017-Sep-04 07:59N 09°22' W 079°55'0 0.1
2017-Sep-04 07:29N 09°22' W 079°55'0 0.0
2017-Sep-04 06:59N 09°22' W 079°55'0 0.0
2017-Sep-04 06:29N 09°22' W 079°55'0 0.0
2017-Sep-04 06:00N 09°22' W 079°55'0 0.0
2017-Sep-04 05:30N 09°22' W 079°55'0 0.0
2017-Sep-04 05:00N 09°22' W 079°55'0 0.0
2017-Sep-04 04:30N 09°22' W 079°55'0 0.0
2017-Sep-04 04:00N 09°22' W 079°55'0 0.1
2017-Sep-04 03:30N 09°22' W 079°55'0 0.0
2017-Sep-04 03:00N 09°22' W 079°55'0 0.0
2017-Sep-04 02:30N 09°22' W 079°55'0 0.1
2017-Sep-04 02:00N 09°22' W 079°55'0 0.0
2017-Sep-04 01:30N 09°22' W 079°55'0 0.0
2017-Sep-04 01:00N 09°22' W 079°55'0 0.0
2017-Sep-04 00:30N 09°22' W 079°55'0 0.0
2017-Sep-04 00:00N 09°22' W 079°55'0 0.1
2017-Sep-03 23:30N 09°22' W 079°55'0 0.0
2017-Sep-03 23:00N 09°22' W 079°55'0 0.0
2017-Sep-03 22:30N 09°22' W 079°55'0 0.0
2017-Sep-03 22:00N 09°22' W 079°55'0 0.0
2017-Sep-03 21:30N 09°22' W 079°55'0 0.1
2017-Sep-03 21:00N 09°22' W 079°55'0 0.1
2017-Sep-03 20:30N 09°22' W 079°55'0 0.1
2017-Sep-03 20:00N 09°22' W 079°55'0 0.0
2017-Sep-03 19:30N 09°22' W 079°55'0 0.1
2017-Sep-03 19:00N 09°22' W 079°55'0 0.1
2017-Sep-03 18:30N 09°22' W 079°55'0 0.3
2017-Sep-03 18:00N 09°22' W 079°55'0 0.2
2017-Sep-03 17:30N 09°22' W 079°55'0 0.0
2017-Sep-03 17:00N 09°22' W 079°55'0 0.1
2017-Sep-03 16:30N 09°22' W 079°55'0 0.0
2017-Sep-03 16:00N 09°22' W 079°55'0 0.0
2017-Sep-03 15:30N 09°22' W 079°55'0 0.0
2017-Sep-03 15:00N 09°22' W 079°55'0 0.0
2017-Sep-03 14:00N 09°22' W 079°55'0 0.0
2017-Sep-03 13:30N 09°22' W 079°55'0 0.0
2017-Sep-03 13:00N 09°22' W 079°55'0 0.1
2017-Sep-03 12:30N 09°22' W 079°55'0 0.1
2017-Sep-03 12:00N 09°22' W 079°55'2 3.9
2017-Sep-03 11:31N 09°24' W 079°55'2 4.1
2017-Sep-03 10:58N 09°26' W 079°56'0 0.0
2017-Sep-03 10:28N 09°26' W 079°56'0 0.1
2017-Sep-03 09:58N 09°26' W 079°56'0 0.0
2017-Sep-03 09:28N 09°26' W 079°56'0 0.0
2017-Sep-03 08:58N 09°26' W 079°56'0 0.0
2017-Sep-03 08:30N 09°26' W 079°56'0 0.0
2017-Sep-03 07:59N 09°26' W 079°56'0 0.0
2017-Sep-03 07:29N 09°26' W 079°56'0 0.0
2017-Sep-03 06:59N 09°26' W 079°56'0 0.0
2017-Sep-03 06:29N 09°26' W 079°56'0 0.0
2017-Sep-03 05:59N 09°26' W 079°56'0 0.0
2017-Sep-03 05:29N 09°26' W 079°56'0 0.0
2017-Sep-03 04:59N 09°26' W 079°56'0 0.0
2017-Sep-03 04:29N 09°26' W 079°56'0 0.0
2017-Sep-03 03:59N 09°26' W 079°56'0 0.0
2017-Sep-03 03:29N 09°26' W 079°56'0 0.1
2017-Sep-03 02:59N 09°26' W 079°56'0 0.0
2017-Sep-03 02:29N 09°26' W 079°56'0 0.0
2017-Sep-03 01:59N 09°26' W 079°56'0 0.0
2017-Sep-03 01:29N 09°26' W 079°56'0 0.0
2017-Sep-03 00:59N 09°26' W 079°56'0 0.0
2017-Sep-03 00:29N 09°26' W 079°56'0 0.0
2017-Sep-02 23:59N 09°26' W 079°56'0 0.0
2017-Sep-02 23:29N 09°26' W 079°56'0 0.1
2017-Sep-02 22:59N 09°26' W 079°56'0 0.1
2017-Sep-02 22:29N 09°26' W 079°56'0 0.0
2017-Sep-02 21:59N 09°26' W 079°56'0 0.1
2017-Sep-02 21:29N 09°26' W 079°56'0 0.1
2017-Sep-02 20:59N 09°26' W 079°56'0 0.0
2017-Sep-02 20:29N 09°26' W 079°56'0 0.1
2017-Sep-02 19:59N 09°26' W 079°56'0 0.0
2017-Sep-02 19:29N 09°26' W 079°56'0 0.0
2017-Sep-02 18:59N 09°26' W 079°56'0 0.0
2017-Sep-02 18:29N 09°26' W 079°56'0 0.0
2017-Sep-02 17:59N 09°26' W 079°56'0 0.0
2017-Sep-02 17:29N 09°26' W 079°56'0 0.0
2017-Sep-02 16:59N 09°26' W 079°56'0 0.0
2017-Sep-02 16:29N 09°26' W 079°56'0 0.0
2017-Sep-02 15:59N 09°26' W 079°56'0 0.1
2017-Sep-02 15:29N 09°26' W 079°56'0 0.2
2017-Sep-02 14:59N 09°26' W 079°56'0 0.0
2017-Sep-02 14:29N 09°26' W 079°56'0 0.1
2017-Sep-02 13:56N 09°26' W 079°56'0 0.0
2017-Sep-02 13:29N 09°26' W 079°56'0 0.0
2017-Sep-02 12:59N 09°26' W 079°56'0 0.0
2017-Sep-02 12:26N 09°26' W 079°56'0 0.0
2017-Sep-02 11:59N 09°26' W 079°56'0 0.0
2017-Sep-02 11:29N 09°26' W 079°56'0 0.0
2017-Sep-02 10:47N 09°26' W 079°56'0 0.0
2017-Sep-02 10:29N 09°26' W 079°56'0 0.0
2017-Sep-02 09:59N 09°26' W 079°56'0 0.0
2017-Sep-02 09:29N 09°26' W 079°56'0 0.0
2017-Sep-02 08:59N 09°26' W 079°56'0 0.0
2017-Sep-02 08:29N 09°26' W 079°56'0 0.0
2017-Sep-02 07:59N 09°26' W 079°56'0 0.0
2017-Sep-02 07:29N 09°26' W 079°56'0 0.0
2017-Sep-02 06:58N 09°26' W 079°56'0 0.0
2017-Sep-02 06:22N 09°26' W 079°56'0 0.0
2017-Sep-02 05:58N 09°26' W 079°56'0 0.0
2017-Sep-02 05:28N 09°26' W 079°56'0 0.0
2017-Sep-02 04:58N 09°26' W 079°56'0 0.0
2017-Sep-02 04:28N 09°26' W 079°56'0 0.0
2017-Sep-02 03:58N 09°26' W 079°56'0 0.0
2017-Sep-02 03:28N 09°26' W 079°56'0 0.0
2017-Sep-02 02:58N 09°26' W 079°56'0 0.0
2017-Sep-02 02:28N 09°26' W 079°56'0 0.0
2017-Sep-02 01:58N 09°26' W 079°56'0 0.0
2017-Sep-02 01:28N 09°26' W 079°56'0 0.0
2017-Sep-02 00:55N 09°26' W 079°56'0 0.0
2017-Sep-02 00:28N 09°26' W 079°56'0 0.0
2017-Sep-01 23:58N 09°26' W 079°55'0 0.0
2017-Sep-01 23:28N 09°26' W 079°56'0 0.0
2017-Sep-01 22:58N 09°26' W 079°56'0 0.0
2017-Sep-01 22:28N 09°26' W 079°55'0 0.0
2017-Sep-01 21:58N 09°26' W 079°55'0 0.0
2017-Sep-01 21:28N 09°26' W 079°55'0 0.0
2017-Sep-01 20:58N 09°26' W 079°55'0 0.0
2017-Sep-01 20:28N 09°26' W 079°55'0 0.0
2017-Sep-01 19:58N 09°26' W 079°55'0 0.0
2017-Sep-01 19:28N 09°26' W 079°55'0 0.0
2017-Sep-01 18:55N 09°26' W 079°55'0 0.0
2017-Sep-01 18:28N 09°26' W 079°55'0 0.0
2017-Sep-01 17:58N 09°26' W 079°56'0 0.0
2017-Sep-01 17:28N 09°26' W 079°56'0 0.0
2017-Sep-01 16:58N 09°26' W 079°56'0 0.0
2017-Sep-01 16:28N 09°26' W 079°56'0 0.0
2017-Sep-01 15:58N 09°26' W 079°56'0 0.0
2017-Sep-01 15:28N 09°26' W 079°56'0 0.0
2017-Sep-01 14:58N 09°26' W 079°56'0 0.0
2017-Sep-01 14:28N 09°26' W 079°56'0 0.0
2017-Sep-01 13:49N 09°26' W 079°56'0 0.0
2017-Sep-01 13:28N 09°26' W 079°56'0 0.0
2017-Sep-01 12:58N 09°26' W 079°56'0 0.0
2017-Sep-01 12:25N 09°26' W 079°56'0 0.0
2017-Sep-01 11:58N 09°26' W 079°56'0 0.0
2017-Sep-01 11:28N 09°26' W 079°56'0 0.0
2017-Sep-01 10:58N 09°26' W 079°56'0 0.0
2017-Sep-01 10:28N 09°26' W 079°56'0 0.0
2017-Sep-01 09:58N 09°26' W 079°56'0 0.0
2017-Sep-01 09:28N 09°26' W 079°56'0 0.0
2017-Sep-01 08:58N 09°26' W 079°56'0 0.0
2017-Sep-01 08:28N 09°26' W 079°56'0 0.0
2017-Sep-01 07:58N 09°26' W 079°56'0 0.0
2017-Sep-01 07:28N 09°26' W 079°56'0 0.0
2017-Sep-01 06:58N 09°26' W 079°56'0 0.0
2017-Sep-01 06:28N 09°26' W 079°56'0 0.0
2017-Sep-01 05:58N 09°26' W 079°56'0 0.0
2017-Sep-01 05:28N 09°26' W 079°56'0 0.0
2017-Sep-01 04:58N 09°26' W 079°56'0 0.0
2017-Sep-01 04:28N 09°26' W 079°56'0 0.0
2017-Sep-01 03:58N 09°26' W 079°56'0 0.0
2017-Sep-01 03:28N 09°26' W 079°56'0 0.0
2017-Sep-01 02:58N 09°26' W 079°56'0 0.0
2017-Sep-01 02:28N 09°26' W 079°56'0 0.0
2017-Sep-01 01:58N 09°26' W 079°56'0 0.0
2017-Sep-01 01:25N 09°26' W 079°56'0 0.0
2017-Sep-01 00:58N 09°26' W 079°56'0 0.0
2017-Sep-01 00:28N 09°26' W 079°56'0 0.0
2017-Aug-31 23:58N 09°26' W 079°56'0 0.1
2017-Aug-31 23:28N 09°26' W 079°56'1 2.1
2017-Aug-31 23:00N 09°27' W 079°55'5 9.5
2017-Aug-31 22:30N 09°31' W 079°53'611.9
2017-Aug-31 22:00N 09°37' W 079°51'812.0
2017-Aug-31 21:22N 09°44' W 079°47'  
Track history (hours):
 
Tides and Currents Weather Stations Pressure Air Temp Water Temp Dewpoint Dewpoint Depression Visibility Wind Speed Wind Dir Waves Ship Positions

Jan

Last reported at 2017-Sep-05 05:43 UTC. Time now 2017-Sep-23 00:22 UTC.
Position N 09°00' W 079°36'.
Warning: this ship's position is 17 days out of date.

Length 145 m; draft 5.6 m.

Type: Cargo ship. MMSI: 235622000.

Date/timePositionNaut miles runAvg speedWind from/ knotsBaromVisibWave heightAir tempDewpointWater temp
2017-Sep-05 05:43N 09°00' W 079°36'0 1.3
2017-Sep-05 05:23N 09°00' W 079°36'1 1.6
2017-Sep-05 04:46N 09°01' W 079°37'0 1.1
2017-Sep-05 04:30N 09°01' W 079°37'3 2.9
2017-Sep-05 03:37N 09°03' W 079°39'3 6.7
2017-Sep-05 03:11N 09°05' W 079°41'2 7.3
2017-Sep-05 02:56N 09°07' W 079°42'4 8.1
2017-Sep-05 02:26N 09°07' W 079°46'510.1
2017-Sep-05 01:56N 09°10' W 079°50'511.5
2017-Sep-05 01:29N 09°12' W 079°55'4 8.3
2017-Sep-05 01:00N 09°16' W 079°55'0 0.8
2017-Sep-05 00:30N 09°16' W 079°55'0 0.8
2017-Sep-05 00:00N 09°17' W 079°55'0 0.5
2017-Sep-04 23:30N 09°17' W 079°55'1 2.5
2017-Sep-04 23:00N 09°18' W 079°55'2 4.4
2017-Sep-04 22:30N 09°20' W 079°55'2 3.7
2017-Sep-04 21:59N 09°22' W 079°55'0 0.1
2017-Sep-04 21:29N 09°22' W 079°55'0 0.0
2017-Sep-04 20:59N 09°22' W 079°55'0 0.0
2017-Sep-04 20:29N 09°22' W 079°55'0 0.0
2017-Sep-04 19:56N 09°22' W 079°55'0 0.0
2017-Sep-04 19:29N 09°22' W 079°55'0 0.0
2017-Sep-04 18:56N 09°22' W 079°55'0 0.0
2017-Sep-04 18:29N 09°22' W 079°55'0 0.0
2017-Sep-04 17:59N 09°22' W 079°55'0 0.0
2017-Sep-04 17:29N 09°22' W 079°55'0 0.1
2017-Sep-04 17:01N 09°22' W 079°55'0 0.0
2017-Sep-04 16:30N 09°22' W 079°55'0 0.1
2017-Sep-04 16:01N 09°22' W 079°55'0 0.0
2017-Sep-04 15:28N 09°22' W 079°55'0 0.2
2017-Sep-04 15:01N 09°22' W 079°55'0 0.1
2017-Sep-04 14:29N 09°22' W 079°55'0 0.1
2017-Sep-04 13:59N 09°22' W 079°55'0 0.1
2017-Sep-04 13:29N 09°22' W 079°55'0 0.1
2017-Sep-04 12:59N 09°22' W 079°55'0 0.1
2017-Sep-04 12:29N 09°22' W 079°55'0 0.1
2017-Sep-04 11:59N 09°22' W 079°55'0 0.0
2017-Sep-04 11:29N 09°22' W 079°55'0 0.0
2017-Sep-04 10:59N 09°22' W 079°55'0 0.1
2017-Sep-04 10:29N 09°22' W 079°55'0 0.1
2017-Sep-04 09:59N 09°22' W 079°55'0 0.3
2017-Sep-04 09:29N 09°22' W 079°55'0 0.1
2017-Sep-04 08:59N 09°22' W 079°55'0 0.0
2017-Sep-04 08:29N 09°22' W 079°55'0 0.0
2017-Sep-04 07:59N 09°22' W 079°55'0 0.1
2017-Sep-04 07:29N 09°22' W 079°55'0 0.0
2017-Sep-04 06:59N 09°22' W 079°55'0 0.0
2017-Sep-04 06:29N 09°22' W 079°55'0 0.0
2017-Sep-04 06:00N 09°22' W 079°55'0 0.0
2017-Sep-04 05:30N 09°22' W 079°55'0 0.0
2017-Sep-04 05:00N 09°22' W 079°55'0 0.0
2017-Sep-04 04:30N 09°22' W 079°55'0 0.0
2017-Sep-04 04:00N 09°22' W 079°55'0 0.1
2017-Sep-04 03:30N 09°22' W 079°55'0 0.0
2017-Sep-04 03:00N 09°22' W 079°55'0 0.0
2017-Sep-04 02:30N 09°22' W 079°55'0 0.1
2017-Sep-04 02:00N 09°22' W 079°55'0 0.0
2017-Sep-04 01:30N 09°22' W 079°55'0 0.0
2017-Sep-04 01:00N 09°22' W 079°55'0 0.0
2017-Sep-04 00:30N 09°22' W 079°55'0 0.0
2017-Sep-04 00:00N 09°22' W 079°55'0 0.1
2017-Sep-03 23:30N 09°22' W 079°55'0 0.0
2017-Sep-03 23:00N 09°22' W 079°55'0 0.0
2017-Sep-03 22:30N 09°22' W 079°55'0 0.0
2017-Sep-03 22:00N 09°22' W 079°55'0 0.0
2017-Sep-03 21:30N 09°22' W 079°55'0 0.1
2017-Sep-03 21:00N 09°22' W 079°55'0 0.1
2017-Sep-03 20:30N 09°22' W 079°55'0 0.1
2017-Sep-03 20:00N 09°22' W 079°55'0 0.0
2017-Sep-03 19:30N 09°22' W 079°55'0 0.1
2017-Sep-03 19:00N 09°22' W 079°55'0 0.1
2017-Sep-03 18:30N 09°22' W 079°55'0 0.3
2017-Sep-03 18:00N 09°22' W 079°55'0 0.2
2017-Sep-03 17:30N 09°22' W 079°55'0 0.0
2017-Sep-03 17:00N 09°22' W 079°55'0 0.1
2017-Sep-03 16:30N 09°22' W 079°55'0 0.0
2017-Sep-03 16:00N 09°22' W 079°55'0 0.0
2017-Sep-03 15:30N 09°22' W 079°55'0 0.0
2017-Sep-03 15:00N 09°22' W 079°55'0 0.0
2017-Sep-03 14:00N 09°22' W 079°55'0 0.0
2017-Sep-03 13:30N 09°22' W 079°55'0 0.0
2017-Sep-03 13:00N 09°22' W 079°55'0 0.1
2017-Sep-03 12:30N 09°22' W 079°55'0 0.1
2017-Sep-03 12:00N 09°22' W 079°55'2 3.9
2017-Sep-03 11:31N 09°24' W 079°55'2 4.1
2017-Sep-03 10:58N 09°26' W 079°56'0 0.0
2017-Sep-03 10:28N 09°26' W 079°56'0 0.1
2017-Sep-03 09:58N 09°26' W 079°56'0 0.0
2017-Sep-03 09:28N 09°26' W 079°56'0 0.0
2017-Sep-03 08:58N 09°26' W 079°56'0 0.0
2017-Sep-03 08:30N 09°26' W 079°56'0 0.0
2017-Sep-03 07:59N 09°26' W 079°56'0 0.0
2017-Sep-03 07:29N 09°26' W 079°56'0 0.0
2017-Sep-03 06:59N 09°26' W 079°56'0 0.0
2017-Sep-03 06:29N 09°26' W 079°56'0 0.0
2017-Sep-03 05:59N 09°26' W 079°56'0 0.0
2017-Sep-03 05:29N 09°26' W 079°56'0 0.0
2017-Sep-03 04:59N 09°26' W 079°56'0 0.0
2017-Sep-03 04:29N 09°26' W 079°56'0 0.0
2017-Sep-03 03:59N 09°26' W 079°56'0 0.0
2017-Sep-03 03:29N 09°26' W 079°56'0 0.1
2017-Sep-03 02:59N 09°26' W 079°56'0 0.0
2017-Sep-03 02:29N 09°26' W 079°56'0 0.0
2017-Sep-03 01:59N 09°26' W 079°56'0 0.0
2017-Sep-03 01:29N 09°26' W 079°56'0 0.0
2017-Sep-03 00:59N 09°26' W 079°56'0 0.0
2017-Sep-03 00:29N 09°26' W 079°56'0 0.0
2017-Sep-02 23:59N 09°26' W 079°56'0 0.0
2017-Sep-02 23:29N 09°26' W 079°56'0 0.1
2017-Sep-02 22:59N 09°26' W 079°56'0 0.1
2017-Sep-02 22:29N 09°26' W 079°56'0 0.0
2017-Sep-02 21:59N 09°26' W 079°56'0 0.1
2017-Sep-02 21:29N 09°26' W 079°56'0 0.1
2017-Sep-02 20:59N 09°26' W 079°56'0 0.0
2017-Sep-02 20:29N 09°26' W 079°56'0 0.1
2017-Sep-02 19:59N 09°26' W 079°56'0 0.0
2017-Sep-02 19:29N 09°26' W 079°56'0 0.0
2017-Sep-02 18:59N 09°26' W 079°56'0 0.0
2017-Sep-02 18:29N 09°26' W 079°56'0 0.0
2017-Sep-02 17:59N 09°26' W 079°56'0 0.0
2017-Sep-02 17:29N 09°26' W 079°56'0 0.0
2017-Sep-02 16:59N 09°26' W 079°56'0 0.0
2017-Sep-02 16:29N 09°26' W 079°56'0 0.0
2017-Sep-02 15:59N 09°26' W 079°56'0 0.1
2017-Sep-02 15:29N 09°26' W 079°56'0 0.2
2017-Sep-02 14:59N 09°26' W 079°56'0 0.0
2017-Sep-02 14:29N 09°26' W 079°56'0 0.1
2017-Sep-02 13:56N 09°26' W 079°56'0 0.0
2017-Sep-02 13:29N 09°26' W 079°56'0 0.0
2017-Sep-02 12:59N 09°26' W 079°56'0 0.0
2017-Sep-02 12:26N 09°26' W 079°56'0 0.0
2017-Sep-02 11:59N 09°26' W 079°56'0 0.0
2017-Sep-02 11:29N 09°26' W 079°56'0 0.0
2017-Sep-02 10:47N 09°26' W 079°56'0 0.0
2017-Sep-02 10:29N 09°26' W 079°56'0 0.0
2017-Sep-02 09:59N 09°26' W 079°56'0 0.0
2017-Sep-02 09:29N 09°26' W 079°56'0 0.0
2017-Sep-02 08:59N 09°26' W 079°56'0 0.0
2017-Sep-02 08:29N 09°26' W 079°56'0 0.0
2017-Sep-02 07:59N 09°26' W 079°56'0 0.0
2017-Sep-02 07:29N 09°26' W 079°56'0 0.0
2017-Sep-02 06:58N 09°26' W 079°56'0 0.0
2017-Sep-02 06:22N 09°26' W 079°56'0 0.0
2017-Sep-02 05:58N 09°26' W 079°56'0 0.0
2017-Sep-02 05:28N 09°26' W 079°56'0 0.0
2017-Sep-02 04:58N 09°26' W 079°56'0 0.0
2017-Sep-02 04:28N 09°26' W 079°56'0 0.0
2017-Sep-02 03:58N 09°26' W 079°56'0 0.0
2017-Sep-02 03:28N 09°26' W 079°56'0 0.0
2017-Sep-02 02:58N 09°26' W 079°56'0 0.0
2017-Sep-02 02:28N 09°26' W 079°56'0 0.0
2017-Sep-02 01:58N 09°26' W 079°56'0 0.0
2017-Sep-02 01:28N 09°26' W 079°56'0 0.0
2017-Sep-02 00:55N 09°26' W 079°56'0 0.0
2017-Sep-02 00:28N 09°26' W 079°56'0 0.0
2017-Sep-01 23:58N 09°26' W 079°55'0 0.0
2017-Sep-01 23:28N 09°26' W 079°56'0 0.0
2017-Sep-01 22:58N 09°26' W 079°56'0 0.0
2017-Sep-01 22:28N 09°26' W 079°55'0 0.0
2017-Sep-01 21:58N 09°26' W 079°55'0 0.0
2017-Sep-01 21:28N 09°26' W 079°55'0 0.0
2017-Sep-01 20:58N 09°26' W 079°55'0 0.0
2017-Sep-01 20:28N 09°26' W 079°55'0 0.0
2017-Sep-01 19:58N 09°26' W 079°55'0 0.0
2017-Sep-01 19:28N 09°26' W 079°55'0 0.0
2017-Sep-01 18:55N 09°26' W 079°55'0 0.0
2017-Sep-01 18:28N 09°26' W 079°55'0 0.0
2017-Sep-01 17:58N 09°26' W 079°56'0 0.0
2017-Sep-01 17:28N 09°26' W 079°56'0 0.0
2017-Sep-01 16:58N 09°26' W 079°56'0 0.0
2017-Sep-01 16:28N 09°26' W 079°56'0 0.0
2017-Sep-01 15:58N 09°26' W 079°56'0 0.0
2017-Sep-01 15:28N 09°26' W 079°56'0 0.0
2017-Sep-01 14:58N 09°26' W 079°56'0 0.0
2017-Sep-01 14:28N 09°26' W 079°56'0 0.0
2017-Sep-01 13:49N 09°26' W 079°56'0 0.0
2017-Sep-01 13:28N 09°26' W 079°56'0 0.0
2017-Sep-01 12:58N 09°26' W 079°56'0 0.0
2017-Sep-01 12:25N 09°26' W 079°56'0 0.0
2017-Sep-01 11:58N 09°26' W 079°56'0 0.0
2017-Sep-01 11:28N 09°26' W 079°56'0 0.0
2017-Sep-01 10:58N 09°26' W 079°56'0 0.0
2017-Sep-01 10:28N 09°26' W 079°56'0 0.0
2017-Sep-01 09:58N 09°26' W 079°56'0 0.0
2017-Sep-01 09:28N 09°26' W 079°56'0 0.0
2017-Sep-01 08:58N 09°26' W 079°56'0 0.0
2017-Sep-01 08:28N 09°26' W 079°56'0 0.0
2017-Sep-01 07:58N 09°26' W 079°56'0 0.0
2017-Sep-01 07:28N 09°26' W 079°56'0 0.0
2017-Sep-01 06:58N 09°26' W 079°56'0 0.0
2017-Sep-01 06:28N 09°26' W 079°56'0 0.0
2017-Sep-01 05:58N 09°26' W 079°56'0 0.0
2017-Sep-01 05:28N 09°26' W 079°56'0 0.0
2017-Sep-01 04:58N 09°26' W 079°56'0 0.0
2017-Sep-01 04:28N 09°26' W 079°56'0 0.0
2017-Sep-01 03:58N 09°26' W 079°56'0 0.0
2017-Sep-01 03:28N 09°26' W 079°56'0 0.0
2017-Sep-01 02:58N 09°26' W 079°56'0 0.0
2017-Sep-01 02:28N 09°26' W 079°56'0 0.0
2017-Sep-01 01:58N 09°26' W 079°56'0 0.0
2017-Sep-01 01:25N 09°26' W 079°56'0 0.0
2017-Sep-01 00:58N 09°26' W 079°56'0 0.0
2017-Sep-01 00:28N 09°26' W 079°56'0 0.0
2017-Aug-31 23:58N 09°26' W 079°56'0 0.1
2017-Aug-31 23:28N 09°26' W 079°56'1 2.1
2017-Aug-31 23:00N 09°27' W 079°55'5 9.5
2017-Aug-31 22:30N 09°31' W 079°53'611.9
2017-Aug-31 22:00N 09°37' W 079°51'812.0
2017-Aug-31 21:22N 09°44' W 079°47'  

Dump ship's entire track history